EDT,Max TemperatureF,Mean TemperatureF,Min TemperatureF,Max Dew PointF,MeanDew PointF,Min DewpointF,Max Humidity, Mean Humidity, Min Humidity, Max Sea Level PressureIn, Mean Sea Level PressureIn, Min Sea Level PressureIn, Max VisibilityMiles, Mean VisibilityMiles, Min VisibilityMiles, Max Wind SpeedMPH, Mean Wind SpeedMPH, Max Gust SpeedMPH,PrecipitationIn, CloudCover, Events, WindDirDegrees
2013-3-1,42,40,37,37,33,30,93,81,67,29.65,29.58,29.48,10,10,10,17,9,29,0.00,7,Rain,348
2013-3-2,43,39,35,33,29,27,83,69,56,29.65,29.63,29.60,10,10,10,13,6,18,0.00,6,,325
2013-3-3,42,38,35,33,30,28,86,73,61,29.61,29.58,29.54,10,10,10,12,6,17,0.00,8,,329
2013-3-4,42,38,33,31,26,22,92,67,45,29.67,29.59,29.54,10,10,4,15,9,26,0.00,6,Snow,311
2013-3-5,42,38,33,39,33,25,100,83,64,30.03,29.93,29.69,10,10,7,18,11,30,0.01,7,Rain,353
2013-3-6,42,38,34,37,35,33,100,84,70,30.03,29.97,29.88,10,8,4,28,11,44,0.02,8,Rain,56
2013-3-7,37,36,35,36,35,34,100,94,93,29.87,29.83,29.81,6,3,2,31,26,48,1.79,8,Rain-Snow,27
2013-3-8,42,38,33,36,33,30,100,89,65,30.02,29.87,29.79,10,4,1,29,23,45,0.85,8,Rain-Snow,21
2013-3-9,39,38,35,32,31,29,86,76,70,30.30,30.17,30.02,10,10,10,24,18,38,0.00,6,,22
2013-3-10,43,40,36,32,31,30,86,73,62,30.38,30.34,30.30,10,10,10,13,8,18,0.00,7,,38
2013-3-11,46,42,37,40,36,32,89,82,73,30.32,30.26,30.19,10,10,10,13,7,20,0.00,6,,187
2013-3-12,54,48,44,50,46,42,96,90,83,30.19,29.97,29.75,10,8,2,15,9,25,0.46,6,Rain,162
2013-3-13,54,47,39,52,40,19,100,77,37,29.77,29.73,29.68,10,7,2,22,9,32,0.62,5,Rain,288
2013-3-14,39,32,27,23,16,6,64,48,34,29.79,29.75,29.68,10,10,10,18,6,32,0.00,5,,288
2013-3-15,39,31,23,27,14,6,67,47,28,29.86,29.76,29.67,10,10,10,21,13,33,0.00,2,,274
2013-3-16,37,34,32,25,19,14,64,52,39,29.86,29.79,29.69,10,10,10,13,8,20,0.00,4,,307
2013-3-17,39,32,26,27,18,10,85,55,34,30.27,30.02,29.86,10,10,10,15,7,23,0.00,1,,340
2013-3-18,37,32,27,26,16,5,75,52,39,30.43,30.34,30.22,10,10,5,13,8,25,0.00,2,Snow,80
2013-3-19,45,38,32,45,35,28,100,91,81,30.20,29.79,29.47,10,4,0,26,11,46,0.67,8,Fog-Rain-Snow,103
2013-3-20,44,36,27,30,22,18,85,62,38,29.83,29.74,29.62,10,10,10,22,12,36,0.00,3,,270
2013-3-21,41,33,25,34,29,22,100,82,53,29.82,29.64,29.55,10,6,1,18,8,26,0.00,7,Snow,6
2013-3-22,39,34,28,34,27,19,100,82,46,29.73,29.61,29.56,10,5,1,14,10,22,0.00,7,Snow,310
2013-3-23,45,38,30,24,20,16,69,50,31,29.76,29.69,29.61,10,10,10,18,11,30,0.00,3,,286
2013-3-24,46,38,30,26,23,19,79,55,40,29.81,29.77,29.73,10,10,10,15,9,22,0.00,0,,334
2013-3-25,48,37,28,34,29,25,89,70,46,29.74,29.57,29.42,10,10,9,22,7,32,0.00,4,Rain,55
2013-3-26,48,41,36,34,29,21,89,67,36,29.75,29.59,29.42,10,10,6,18,13,30,0.02,4,Rain-Snow,352
2013-3-27,54,42,34,38,27,22,85,53,33,29.83,29.77,29.73,10,10,10,13,7,22,0.00,3,Rain,333
2013-3-28,48,44,39,39,36,31,93,80,59,30.01,29.88,29.81,10,9,5,15,10,24,0.05,8,Rain,348
2013-3-29,54,47,41,36,33,31,73,60,48,30.02,30.00,29.98,10,10,10,14,7,23,0.00,4,,302
2013-3-30,54,46,34,37,33,27,89,63,38,30.09,30.04,30.01,10,10,10,13,5,21,0.00,3,Rain,308
2013-3-31,53,40,27,44,34,25,93,73,44,30.12,30.04,29.75,10,10,6,16,4,25,0.05,2,Rain,176